createdAt,value
2017-07-12T00:00:03.232Z,1004.27
2017-07-12T00:00:29.380Z,1004.27
2017-07-12T00:00:55.508Z,1004.25
2017-07-12T00:01:21.647Z,1004.3
2017-07-12T00:01:47.796Z,1004.26
2017-07-12T00:02:13.923Z,1004.22
2017-07-12T00:02:40.062Z,1004.24
2017-07-12T00:03:06.196Z,1004.25
2017-07-12T00:03:32.342Z,1004.24
2017-07-12T00:03:58.486Z,1004.28
2017-07-12T00:04:24.615Z,1004.22
2017-07-12T00:04:50.755Z,1004.28
2017-07-12T00:05:16.899Z,1004.27
2017-07-12T00:05:43.031Z,1004.26
2017-07-12T00:06:09.190Z,1004.26
2017-07-12T00:06:35.335Z,1004.29
2017-07-12T00:07:01.467Z,1004.29
2017-07-12T00:07:27.602Z,1004.28
2017-07-12T00:07:53.749Z,1004.27
2017-07-12T00:08:19.887Z,1004.24
2017-07-12T00:08:46.032Z,1004.31
2017-07-12T00:09:12.162Z,1004.27
2017-07-12T00:09:38.300Z,1004.26
2017-07-12T00:10:04.445Z,1004.28
2017-07-12T00:10:30.582Z,1004.27
2017-07-12T00:10:56.713Z,1004.26
2017-07-12T00:11:22.866Z,1004.24
2017-07-12T00:11:49.000Z,1004.27
2017-07-12T00:12:15.128Z,1004.26
2017-07-12T00:12:41.276Z,1004.25
2017-07-12T00:13:07.419Z,1004.22
2017-07-12T00:13:33.547Z,1004.23
2017-07-12T00:13:59.690Z,1004.23
2017-07-12T00:14:25.844Z,1004.23
2017-07-12T00:14:51.995Z,1004.23
2017-07-12T00:15:18.131Z,1004.26
2017-07-12T00:15:44.260Z,1004.21
2017-07-12T00:16:10.411Z,1004.21
2017-07-12T00:16:36.552Z,1004.21
2017-07-12T00:17:02.682Z,1004.21
2017-07-12T00:17:28.824Z,1004.19
2017-07-12T00:17:54.971Z,1004.18
2017-07-12T00:18:21.099Z,1004.18
2017-07-12T00:18:47.243Z,1004.2
2017-07-12T00:19:13.390Z,1004.15
2017-07-12T00:19:39.520Z,1004.15
2017-07-12T00:20:05.660Z,1004.14
2017-07-12T00:20:31.794Z,1004.12
2017-07-12T00:20:57.936Z,1004.15
2017-07-12T00:21:24.081Z,1004.17
2017-07-12T00:21:50.212Z,1004.15
2017-07-12T00:22:16.347Z,1004.16
2017-07-12T00:22:42.495Z,1004.13
2017-07-12T00:23:08.625Z,1004.17
2017-07-12T00:23:34.762Z,1004.15
2017-07-12T00:24:00.905Z,1004.14
2017-07-12T00:24:27.043Z,1004.12
2017-07-12T00:24:53.172Z,1004.13
2017-07-12T00:25:19.315Z,1004.12
2017-07-12T00:25:45.452Z,1004.08
2017-07-12T00:26:11.597Z,1004.11
2017-07-12T00:26:37.734Z,1004.1
2017-07-12T00:27:03.888Z,1004.11
2017-07-12T00:27:30.031Z,1004.07
2017-07-12T00:27:56.164Z,1004.09
2017-07-12T00:28:22.296Z,1004.03
2017-07-12T00:28:48.442Z,1004.05
2017-07-12T00:29:14.583Z,1004.02
2017-07-12T00:29:40.712Z,1004.02
2017-07-12T00:30:06.915Z,1004.01
2017-07-12T00:30:32.997Z,1004.01
2017-07-12T00:30:59.132Z,1003.97
2017-07-12T00:31:25.277Z,1003.96
2017-07-12T00:31:51.423Z,1003.97
2017-07-12T00:32:17.553Z,1003.9
2017-07-12T00:32:43.691Z,1003.93
2017-07-12T00:33:09.835Z,1003.91
2017-07-12T00:33:35.968Z,1003.91
2017-07-12T00:34:02.107Z,1003.89
2017-07-12T00:34:28.251Z,1003.86
2017-07-12T00:34:54.383Z,1003.87
2017-07-12T00:35:20.515Z,1003.85
2017-07-12T00:35:46.662Z,1003.86
2017-07-12T00:36:12.803Z,1003.89
2017-07-12T00:36:38.944Z,1003.83
2017-07-12T00:37:05.075Z,1003.9
2017-07-12T00:37:31.210Z,1003.84
2017-07-12T00:37:57.359Z,1003.85
2017-07-12T00:38:23.493Z,1003.84
2017-07-12T00:38:49.627Z,1003.84
2017-07-12T00:39:15.776Z,1003.82
2017-07-12T00:39:41.914Z,1003.87
2017-07-12T00:40:08.047Z,1003.86
2017-07-12T00:40:34.192Z,1003.91
2017-07-12T00:41:00.333Z,1003.92
2017-07-12T00:41:26.464Z,1003.89
2017-07-12T00:41:52.606Z,1003.92
2017-07-12T00:42:18.737Z,1003.88
2017-07-12T00:42:44.889Z,1003.89
2017-07-12T00:43:11.049Z,1003.89
2017-07-12T00:43:37.180Z,1003.89
2017-07-12T00:44:03.324Z,1003.84
2017-07-12T00:44:29.467Z,1003.87
2017-07-12T00:44:55.593Z,1003.86
2017-07-12T00:45:21.737Z,1003.84
2017-07-12T00:45:47.909Z,1003.87
2017-07-12T00:46:14.037Z,1003.83
2017-07-12T00:46:40.174Z,1003.85
2017-07-12T00:47:06.319Z,1003.85
2017-07-12T00:47:32.451Z,1003.85
2017-07-12T00:47:58.595Z,1003.82
2017-07-12T00:48:24.724Z,1003.82
2017-07-12T00:48:50.864Z,1003.87
2017-07-12T00:49:17.011Z,1003.85
2017-07-12T00:49:43.155Z,1003.86
2017-07-12T00:50:09.296Z,1003.88
2017-07-12T00:50:35.444Z,1003.88
2017-07-12T00:51:01.579Z,1003.87
2017-07-12T00:51:27.714Z,1003.84
2017-07-12T00:51:53.863Z,1003.85
2017-07-12T00:52:19.994Z,1003.84
2017-07-12T00:52:46.125Z,1003.79
2017-07-12T00:53:12.268Z,1003.87
2017-07-12T00:53:38.406Z,1003.83
2017-07-12T00:54:04.550Z,1003.83
2017-07-12T00:54:30.682Z,1003.88
2017-07-12T00:54:56.822Z,1003.81
2017-07-12T00:55:22.965Z,1003.81
2017-07-12T00:55:49.096Z,1003.83
2017-07-12T00:56:15.233Z,1003.8
2017-07-12T00:56:41.375Z,1003.83
2017-07-12T00:57:07.516Z,1003.81
2017-07-12T00:57:33.645Z,1003.78
2017-07-12T00:57:59.793Z,1003.82
2017-07-12T00:58:25.934Z,1003.8
2017-07-12T00:58:52.075Z,1003.8
2017-07-12T00:59:18.209Z,1003.79
2017-07-12T00:59:44.341Z,1003.81
2017-07-12T01:00:10.488Z,1003.77
2017-07-12T01:00:36.628Z,1003.79
2017-07-12T01:01:02.761Z,1003.77
2017-07-12T01:01:28.906Z,1003.8
2017-07-12T01:01:55.044Z,1003.76
2017-07-12T01:02:21.176Z,1003.75
2017-07-12T01:02:47.320Z,1003.78
2017-07-12T01:03:13.466Z,1003.78
2017-07-12T01:03:39.596Z,1003.76
2017-07-12T01:04:05.735Z,1003.76
2017-07-12T01:04:31.869Z,1003.75
2017-07-12T01:04:58.012Z,1003.74
2017-07-12T01:05:24.154Z,1003.72
2017-07-12T01:05:50.282Z,1003.72
2017-07-12T01:06:16.426Z,1003.74
2017-07-12T01:06:42.601Z,1003.75
2017-07-12T01:07:08.729Z,1003.75
2017-07-12T01:07:34.867Z,1003.74
2017-07-12T01:08:01.012Z,1003.73
2017-07-12T01:08:27.145Z,1003.74
2017-07-12T01:08:53.284Z,1003.75
2017-07-12T01:09:19.429Z,1003.73
2017-07-12T01:09:45.560Z,1003.71
2017-07-12T01:10:11.709Z,1003.7
2017-07-12T01:10:37.835Z,1003.72
2017-07-12T01:11:03.978Z,1003.69
2017-07-12T01:11:30.125Z,1003.73
2017-07-12T01:11:56.262Z,1003.72
2017-07-12T01:12:22.386Z,1003.72
2017-07-12T01:12:48.534Z,1003.75
2017-07-12T01:13:14.666Z,1003.76
2017-07-12T01:13:40.800Z,1003.79
2017-07-12T01:14:06.949Z,1003.81
2017-07-12T01:14:33.088Z,1003.83
2017-07-12T01:14:59.221Z,1003.87
2017-07-12T01:15:25.363Z,1003.83
2017-07-12T01:15:51.505Z,1003.86
2017-07-12T01:16:17.636Z,1003.87
2017-07-12T01:16:43.777Z,1003.85
2017-07-12T01:17:09.920Z,1003.88
2017-07-12T01:17:36.045Z,1003.91
2017-07-12T01:18:02.186Z,1003.92
2017-07-12T01:18:28.333Z,1003.92
2017-07-12T01:18:54.483Z,1003.9
2017-07-12T01:19:20.619Z,1003.87
2017-07-12T01:19:46.768Z,1003.9
2017-07-12T01:20:12.900Z,1003.91
2017-07-12T01:20:39.032Z,1003.87
2017-07-12T01:21:05.173Z,1003.86
2017-07-12T01:21:31.316Z,1003.84
2017-07-12T01:21:57.462Z,1003.81
2017-07-12T01:22:23.594Z,1003.82
2017-07-12T01:22:49.729Z,1003.77
2017-07-12T01:23:15.876Z,1003.78
2017-07-12T01:23:42.010Z,1003.79
2017-07-12T01:24:08.141Z,1003.78
2017-07-12T01:24:34.293Z,1003.77
2017-07-12T01:25:00.427Z,1003.76
2017-07-12T01:25:26.558Z,1003.73
2017-07-12T01:25:52.732Z,1003.71
2017-07-12T01:26:18.845Z,1003.68
2017-07-12T01:26:44.985Z,1003.73
2017-07-12T01:27:11.121Z,1003.72
2017-07-12T01:27:37.250Z,1003.72
2017-07-12T01:28:03.402Z,1003.69
2017-07-12T01:28:29.536Z,1003.69
2017-07-12T01:28:55.666Z,1003.71
2017-07-12T01:29:21.814Z,1003.67
2017-07-12T01:29:47.956Z,1003.7
2017-07-12T01:30:14.085Z,1003.68
2017-07-12T01:30:40.225Z,1003.68
2017-07-12T01:31:06.372Z,1003.69
2017-07-12T01:31:32.495Z,1003.67
2017-07-12T01:31:58.636Z,1003.71
2017-07-12T01:32:24.769Z,1003.7
2017-07-12T01:32:50.918Z,1003.71
2017-07-12T01:33:17.055Z,1003.67
2017-07-12T01:33:43.185Z,1003.71
2017-07-12T01:34:09.325Z,1003.7
2017-07-12T01:34:35.471Z,1003.71
2017-07-12T01:35:01.597Z,1003.68
2017-07-12T01:35:27.735Z,1003.65
2017-07-12T01:35:53.882Z,1003.69
2017-07-12T01:36:20.011Z,1003.67
2017-07-12T01:36:46.150Z,1003.7
2017-07-12T01:37:12.294Z,1003.67
2017-07-12T01:37:38.429Z,1003.69
2017-07-12T01:38:04.575Z,1003.66
2017-07-12T01:38:30.702Z,1003.66
2017-07-12T01:38:56.845Z,1003.62
2017-07-12T01:39:22.989Z,1003.62
2017-07-12T01:39:49.122Z,1003.65
2017-07-12T01:40:15.277Z,1003.6
2017-07-12T01:40:41.425Z,1003.61
2017-07-12T01:41:07.556Z,1003.6
2017-07-12T01:41:33.689Z,1003.59
2017-07-12T01:41:59.838Z,1003.59
2017-07-12T01:42:25.976Z,1003.61
2017-07-12T01:42:52.147Z,1003.62
2017-07-12T01:43:18.253Z,1003.6
2017-07-12T01:43:44.384Z,1003.61
2017-07-12T01:44:10.529Z,1003.64
2017-07-12T01:44:36.669Z,1003.65
2017-07-12T01:45:02.797Z,1003.62
2017-07-12T01:45:28.947Z,1003.62
2017-07-12T01:45:55.082Z,1003.57
2017-07-12T01:46:21.213Z,1003.59
2017-07-12T01:46:47.357Z,1003.58
2017-07-12T01:47:13.500Z,1003.58
2017-07-12T01:47:39.628Z,1003.63
2017-07-12T01:48:05.772Z,1003.62
2017-07-12T01:48:31.918Z,1003.61
2017-07-12T01:48:58.057Z,1003.57
2017-07-12T01:49:24.191Z,1003.57
2017-07-12T01:49:50.320Z,1003.58
2017-07-12T01:50:16.470Z,1003.56
2017-07-12T01:50:42.615Z,1003.59
2017-07-12T01:51:08.740Z,1003.57
2017-07-12T01:51:34.881Z,1003.57
2017-07-12T01:52:01.028Z,1003.61
2017-07-12T01:52:27.155Z,1003.59
2017-07-12T01:52:53.296Z,1003.56
2017-07-12T01:53:19.439Z,1003.54
2017-07-12T01:53:45.575Z,1003.59
2017-07-12T01:54:11.710Z,1003.59
2017-07-12T01:54:37.846Z,1003.56
2017-07-12T01:55:03.988Z,1003.57
2017-07-12T01:55:30.133Z,1003.59
2017-07-12T01:55:56.262Z,1003.58
2017-07-12T01:56:22.401Z,1003.59
2017-07-12T01:56:48.550Z,1003.55
2017-07-12T01:57:14.680Z,1003.56
2017-07-12T01:57:40.817Z,1003.53
2017-07-12T01:58:06.964Z,1003.56
2017-07-12T01:58:33.098Z,1003.55
2017-07-12T01:58:59.228Z,1003.58
2017-07-12T01:59:25.374Z,1003.56
2017-07-12T01:59:51.510Z,1003.62
2017-07-12T02:00:17.641Z,1003.57
2017-07-12T02:00:43.786Z,1003.6
2017-07-12T02:01:09.922Z,1003.6
2017-07-12T02:01:36.054Z,1003.6
2017-07-12T02:02:02.195Z,1003.61
2017-07-12T02:02:28.342Z,1003.6
2017-07-12T02:02:54.466Z,1003.54
2017-07-12T02:03:20.604Z,1003.56
2017-07-12T02:03:46.754Z,1003.55
2017-07-12T02:04:12.886Z,1003.53
2017-07-12T02:04:39.022Z,1003.58
2017-07-12T02:05:05.170Z,1003.53
2017-07-12T02:05:31.306Z,1003.51
2017-07-12T02:05:57.452Z,1003.52
2017-07-12T02:06:23.581Z,1003.5
2017-07-12T02:06:49.719Z,1003.53
2017-07-12T02:07:15.866Z,1003.52
2017-07-12T02:07:42.020Z,1003.5
2017-07-12T02:08:08.156Z,1003.47
2017-07-12T02:08:34.300Z,1003.47
2017-07-12T02:09:00.439Z,1003.49
2017-07-12T02:09:26.566Z,1003.54
2017-07-12T02:09:52.716Z,1003.52
2017-07-12T02:10:18.850Z,1003.48
2017-07-12T02:10:44.981Z,1003.53
2017-07-12T02:11:11.129Z,1003.52
2017-07-12T02:11:37.264Z,1003.53
2017-07-12T02:12:03.411Z,1003.5
2017-07-12T02:12:29.541Z,1003.51
2017-07-12T02:12:55.673Z,1003.52
2017-07-12T02:13:21.821Z,1003.45
2017-07-12T02:13:47.957Z,1003.48
2017-07-12T02:14:14.086Z,1003.43
2017-07-12T02:14:40.237Z,1003.46
2017-07-12T02:15:06.577Z,1003.38
2017-07-12T02:15:32.709Z,1003.36
2017-07-12T02:15:58.852Z,1003.37
2017-07-12T02:16:24.998Z,1003.35
2017-07-12T02:16:51.131Z,1003.32
2017-07-12T02:17:17.268Z,1003.31
2017-07-12T02:17:43.449Z,1003.3
2017-07-12T02:18:09.544Z,1003.32
2017-07-12T02:18:35.681Z,1003.27
2017-07-12T02:19:01.815Z,1003.27
2017-07-12T02:19:27.958Z,1003.27
2017-07-12T02:19:54.101Z,1003.19
2017-07-12T02:20:20.229Z,1003.24
2017-07-12T02:20:46.366Z,1003.21
2017-07-12T02:21:12.517Z,1003.21
2017-07-12T02:21:38.645Z,1003.23
2017-07-12T02:22:04.781Z,1003.25
2017-07-12T02:22:30.986Z,1003.25
2017-07-12T02:22:57.072Z,1003.26
2017-07-12T02:23:23.199Z,1003.27
2017-07-12T02:23:49.352Z,1003.27
2017-07-12T02:24:15.488Z,1003.22
2017-07-12T02:24:41.616Z,1003.21
2017-07-12T02:25:07.763Z,1003.25
2017-07-12T02:25:33.906Z,1003.26
2017-07-12T02:26:00.033Z,1003.28
2017-07-12T02:26:26.173Z,1003.29
2017-07-12T02:26:52.319Z,1003.29
2017-07-12T02:27:18.444Z,1003.29
2017-07-12T02:27:44.583Z,1003.28
2017-07-12T02:28:10.715Z,1003.34
2017-07-12T02:28:36.888Z,1003.33
2017-07-12T02:29:03.027Z,1003.33
2017-07-12T02:29:29.158Z,1003.37
2017-07-12T02:29:55.298Z,1003.37
2017-07-12T02:30:21.446Z,1003.32
2017-07-12T02:30:47.570Z,1003.33
2017-07-12T02:31:13.709Z,1003.33
2017-07-12T02:31:39.855Z,1003.37
2017-07-12T02:32:05.987Z,1003.39
2017-07-12T02:32:32.118Z,1003.41
2017-07-12T02:32:58.265Z,1003.43
2017-07-12T02:33:24.401Z,1003.41
2017-07-12T02:33:50.545Z,1003.44
2017-07-12T02:34:16.675Z,1003.41
2017-07-12T02:34:42.814Z,1003.41
2017-07-12T02:35:08.961Z,1003.39
2017-07-12T02:35:35.090Z,1003.39
2017-07-12T02:36:01.249Z,1003.39
2017-07-12T02:36:27.393Z,1003.38
2017-07-12T02:36:53.527Z,1003.34
2017-07-12T02:37:19.655Z,1003.35
2017-07-12T02:37:45.805Z,1003.3
2017-07-12T02:38:11.936Z,1003.35
2017-07-12T02:38:38.066Z,1003.33
2017-07-12T02:39:04.210Z,1003.29
2017-07-12T02:39:30.352Z,1003.31
2017-07-12T02:39:56.496Z,1003.29
2017-07-12T02:40:22.636Z,1003.23
2017-07-12T02:40:48.766Z,1003.23
2017-07-12T02:41:14.912Z,1003.22
2017-07-12T02:41:41.049Z,1003.18
2017-07-12T02:42:07.177Z,1003.18
2017-07-12T02:42:33.324Z,1003.18
2017-07-12T02:42:59.462Z,1003.11
2017-07-12T02:43:25.594Z,1003.14
2017-07-12T02:43:51.741Z,1003.13
2017-07-12T02:44:17.889Z,1003.1
2017-07-12T02:44:44.016Z,1003.12
2017-07-12T02:45:10.154Z,1003.12
2017-07-12T02:45:36.298Z,1003.09
2017-07-12T02:46:02.430Z,1003.11
2017-07-12T02:46:28.570Z,1003.11
2017-07-12T02:46:54.713Z,1003.13
2017-07-12T02:47:20.844Z,1003.13
2017-07-12T02:47:46.976Z,1003.12
2017-07-12T02:48:13.126Z,1003.07
2017-07-12T02:48:39.264Z,1003.07
2017-07-12T02:49:05.394Z,1003.06
2017-07-12T02:49:31.542Z,1003.03
2017-07-12T02:49:57.681Z,1003.02
2017-07-12T02:50:23.822Z,1003.05
2017-07-12T02:50:49.955Z,1003.01
2017-07-12T02:51:16.090Z,1003.03
2017-07-12T02:51:42.259Z,1003.03
2017-07-12T02:52:08.398Z,1003.03
2017-07-12T02:52:34.533Z,1002.98
2017-07-12T02:53:00.677Z,1003.05
2017-07-12T02:53:26.818Z,1003.05
2017-07-12T02:53:52.945Z,1003.02
2017-07-12T02:54:19.090Z,1003.02
2017-07-12T02:54:45.238Z,1003.04
2017-07-12T02:55:11.365Z,1003.06
2017-07-12T02:55:37.505Z,1003.09
2017-07-12T02:56:03.639Z,1003.09
2017-07-12T02:56:29.784Z,1003.09
2017-07-12T02:56:55.925Z,1003.06
2017-07-12T02:57:22.051Z,1003.08
2017-07-12T02:57:48.196Z,1003.06
2017-07-12T02:58:14.341Z,1003.03
2017-07-12T02:58:40.468Z,1003.04
2017-07-12T02:59:06.606Z,1003.06
2017-07-12T02:59:32.748Z,1003.01
2017-07-12T02:59:58.879Z,1003.01
2017-07-12T03:00:25.017Z,1002.98
2017-07-12T03:00:51.161Z,1003
2017-07-12T03:01:17.301Z,1003
2017-07-12T03:01:43.439Z,1002.99
2017-07-12T03:02:09.563Z,1003.02
2017-07-12T03:02:35.725Z,1002.99
2017-07-12T03:03:01.889Z,1002.96
2017-07-12T03:03:28.021Z,1003
2017-07-12T03:03:54.182Z,1002.96
2017-07-12T03:04:20.329Z,1002.95
2017-07-12T03:04:46.459Z,1002.97
2017-07-12T03:05:12.591Z,1003
2017-07-12T03:05:38.739Z,1002.98
2017-07-12T03:06:04.878Z,1002.97
2017-07-12T03:06:31.009Z,1002.98
2017-07-12T03:06:57.152Z,1003.01
2017-07-12T03:07:23.287Z,1002.96
2017-07-12T03:07:49.431Z,1002.96
2017-07-12T03:08:15.565Z,1003
2017-07-12T03:08:41.697Z,1003.01
2017-07-12T03:09:07.844Z,1003.01
2017-07-12T03:09:34.011Z,1003.01
2017-07-12T03:10:00.142Z,1003.02
2017-07-12T03:10:26.287Z,1003.03
2017-07-12T03:10:52.425Z,1003
2017-07-12T03:11:18.557Z,1002.99
2017-07-12T03:11:44.698Z,1003.05
2017-07-12T03:12:10.847Z,1003.04
2017-07-12T03:12:36.982Z,1003.04
2017-07-12T03:13:03.119Z,1003.03
2017-07-12T03:13:29.252Z,1003.02
2017-07-12T03:13:55.395Z,1003.04
2017-07-12T03:14:21.534Z,1003.02
2017-07-12T03:14:47.665Z,1003.02
2017-07-12T03:15:13.811Z,1003.05
2017-07-12T03:15:39.953Z,1003
2017-07-12T03:16:06.081Z,1002.98
2017-07-12T03:16:32.217Z,1002.96
2017-07-12T03:16:58.391Z,1002.97
2017-07-12T03:17:24.520Z,1002.96
2017-07-12T03:17:50.657Z,1002.95
2017-07-12T03:18:16.793Z,1002.93
2017-07-12T03:18:42.939Z,1002.99
2017-07-12T03:19:09.084Z,1002.99
2017-07-12T03:19:35.213Z,1002.99
2017-07-12T03:20:01.354Z,1003.02
2017-07-12T03:20:27.497Z,1003
2017-07-12T03:20:53.625Z,1003
2017-07-12T03:21:19.761Z,1003
2017-07-12T03:21:45.905Z,1003.01
2017-07-12T03:22:12.035Z,1003.02
2017-07-12T03:22:38.166Z,1003.03
2017-07-12T03:23:04.314Z,1003.05
2017-07-12T03:23:30.451Z,1003.07
2017-07-12T03:23:56.592Z,1003.05
2017-07-12T03:24:22.725Z,1003.01
2017-07-12T03:24:48.861Z,1003.01
2017-07-12T03:25:15.007Z,1003.02
2017-07-12T03:25:41.141Z,1002.99
2017-07-12T03:26:07.277Z,1002.97
2017-07-12T03:26:33.428Z,1002.94
2017-07-12T03:26:59.569Z,1002.95
2017-07-12T03:27:25.700Z,1002.93
2017-07-12T03:27:51.844Z,1002.88
2017-07-12T03:28:17.982Z,1002.9
2017-07-12T03:28:44.116Z,1002.88
2017-07-12T03:29:10.260Z,1002.87
2017-07-12T03:29:36.405Z,1002.86
2017-07-12T03:30:02.534Z,1002.84
2017-07-12T03:30:28.674Z,1002.82
2017-07-12T03:30:54.818Z,1002.86
2017-07-12T03:31:20.949Z,1002.83
2017-07-12T03:31:47.087Z,1002.82
2017-07-12T03:32:13.255Z,1002.84
2017-07-12T03:32:39.387Z,1002.8
2017-07-12T03:33:05.518Z,1002.81
2017-07-12T03:33:31.669Z,1002.77
2017-07-12T03:33:57.809Z,1002.78
2017-07-12T03:34:23.940Z,1002.72
2017-07-12T03:34:50.085Z,1002.78
2017-07-12T03:35:16.215Z,1002.79
2017-07-12T03:35:42.360Z,1002.75
2017-07-12T03:36:08.496Z,1002.74
2017-07-12T03:36:34.625Z,1002.72
2017-07-12T03:37:00.779Z,1002.75
2017-07-12T03:37:26.914Z,1002.73
2017-07-12T03:37:53.047Z,1002.76
2017-07-12T03:38:19.190Z,1002.76
2017-07-12T03:38:45.331Z,1002.72
2017-07-12T03:39:11.458Z,1002.73
2017-07-12T03:39:37.602Z,1002.73
2017-07-12T03:40:03.750Z,1002.71
2017-07-12T03:40:29.905Z,1002.69
2017-07-12T03:40:56.038Z,1002.69
2017-07-12T03:41:22.168Z,1002.69
2017-07-12T03:41:48.316Z,1002.69
2017-07-12T03:42:14.455Z,1002.69
2017-07-12T03:42:40.593Z,1002.67
2017-07-12T03:43:06.746Z,1002.66
2017-07-12T03:43:32.896Z,1002.67
2017-07-12T03:43:59.020Z,1002.66
2017-07-12T03:44:25.160Z,1002.66
2017-07-12T03:44:51.306Z,1002.67
2017-07-12T03:45:17.441Z,1002.66
2017-07-12T03:45:43.591Z,1002.67
2017-07-12T03:46:09.728Z,1002.67
2017-07-12T03:46:35.868Z,1002.67
2017-07-12T03:47:02.017Z,1002.64
2017-07-12T03:47:28.143Z,1002.67
2017-07-12T03:47:54.284Z,1002.63
2017-07-12T03:48:20.433Z,1002.62
2017-07-12T03:48:46.560Z,1002.62
2017-07-12T03:49:12.694Z,1002.61
2017-07-12T03:49:38.842Z,1002.59
2017-07-12T03:50:04.978Z,1002.6
2017-07-12T03:50:31.106Z,1002.57
2017-07-12T03:50:57.257Z,1002.57
2017-07-12T03:51:23.392Z,1002.59
2017-07-12T03:51:49.533Z,1002.57
2017-07-12T03:52:15.665Z,1002.59
2017-07-12T03:52:41.823Z,1002.57
2017-07-12T03:53:07.970Z,1002.58
2017-07-12T03:53:34.102Z,1002.6
2017-07-12T03:54:00.232Z,1002.55
2017-07-12T03:54:26.383Z,1002.57
2017-07-12T03:54:52.521Z,1002.6
2017-07-12T03:55:18.652Z,1002.6
2017-07-12T03:55:44.796Z,1002.6
2017-07-12T03:56:10.935Z,1002.58
2017-07-12T03:56:37.066Z,1002.6
2017-07-12T03:57:03.209Z,1002.58
2017-07-12T03:57:29.339Z,1002.59
2017-07-12T03:57:55.490Z,1002.57
2017-07-12T03:58:21.625Z,1002.57
2017-07-12T03:58:47.758Z,1002.59
2017-07-12T03:59:13.903Z,1002.58
2017-07-12T03:59:40.044Z,1002.57
2017-07-12T04:00:06.172Z,1002.54
2017-07-12T04:00:32.317Z,1002.57
2017-07-12T04:00:58.488Z,1002.56
2017-07-12T04:01:24.615Z,1002.5
2017-07-12T04:01:50.752Z,1002.51
2017-07-12T04:02:16.898Z,1002.45
2017-07-12T04:02:43.032Z,1002.47
2017-07-12T04:03:09.176Z,1002.4
2017-07-12T04:03:35.303Z,1002.43
2017-07-12T04:04:01.443Z,1002.45
2017-07-12T04:04:27.593Z,1002.42
2017-07-12T04:04:53.718Z,1002.45
2017-07-12T04:05:19.859Z,1002.43
2017-07-12T04:05:46.004Z,1002.45
2017-07-12T04:06:12.135Z,1002.47
2017-07-12T04:06:38.271Z,1002.42
2017-07-12T04:07:04.422Z,1002.42
2017-07-12T04:07:30.553Z,1002.42
2017-07-12T04:07:56.685Z,1002.39
2017-07-12T04:08:22.827Z,1002.33
2017-07-12T04:08:48.968Z,1002.37
2017-07-12T04:09:15.115Z,1002.36
2017-07-12T04:09:41.244Z,1002.35
2017-07-12T04:10:07.380Z,1002.35
2017-07-12T04:10:33.525Z,1002.34
2017-07-12T04:10:59.660Z,1002.28
2017-07-12T04:11:25.789Z,1002.31
2017-07-12T04:11:51.940Z,1002.28
2017-07-12T04:12:18.075Z,1002.25
2017-07-12T04:12:44.266Z,1002.27
2017-07-12T04:13:10.353Z,1002.28
2017-07-12T04:13:36.493Z,1002.28
2017-07-12T04:14:02.621Z,1002.33
2017-07-12T04:14:28.761Z,1002.31
2017-07-12T04:14:54.909Z,1002.24
2017-07-12T04:15:21.033Z,1002.26
2017-07-12T04:15:47.195Z,1002.27
2017-07-12T04:16:13.344Z,1002.23
2017-07-12T04:16:39.470Z,1002.28
2017-07-12T04:17:05.603Z,1002.22
2017-07-12T04:17:31.752Z,1002.22
2017-07-12T04:17:57.887Z,1002.24
2017-07-12T04:18:24.016Z,1002.24
2017-07-12T04:18:50.167Z,1002.24
2017-07-12T04:19:16.326Z,1002.24
2017-07-12T04:19:42.468Z,1002.23
2017-07-12T04:20:08.596Z,1002.24
2017-07-12T04:20:34.739Z,1002.24
2017-07-12T04:21:00.879Z,1002.17
2017-07-12T04:21:27.014Z,1002.22
2017-07-12T04:21:53.142Z,1002.2
2017-07-12T04:22:19.297Z,1002.15
2017-07-12T04:22:45.432Z,1002.19
2017-07-12T04:23:11.561Z,1002.17
2017-07-12T04:23:37.710Z,1002.21
2017-07-12T04:24:03.849Z,1002.17
2017-07-12T04:24:29.979Z,1002.19
2017-07-12T04:24:56.123Z,1002.14
2017-07-12T04:25:22.255Z,1002.19
2017-07-12T04:25:48.400Z,1002.2
2017-07-12T04:26:14.537Z,1002.19
2017-07-12T04:26:40.666Z,1002.18
2017-07-12T04:27:06.812Z,1002.2
2017-07-12T04:27:32.951Z,1002.23
2017-07-12T04:27:59.084Z,1002.2
2017-07-12T04:28:25.225Z,1002.19
2017-07-12T04:28:51.374Z,1002.2
2017-07-12T04:29:17.500Z,1002.2
2017-07-12T04:29:43.641Z,1002.19
2017-07-12T04:30:09.788Z,1002.2
2017-07-12T04:30:35.941Z,1002.21
2017-07-12T04:31:02.084Z,1002.21
2017-07-12T04:31:28.217Z,1002.2
2017-07-12T04:31:54.364Z,1002.19
2017-07-12T04:32:20.508Z,1002.23
2017-07-12T04:32:46.635Z,1002.23
2017-07-12T04:33:12.773Z,1002.2
2017-07-12T04:33:38.918Z,1002.22
2017-07-12T04:34:05.046Z,1002.21
2017-07-12T04:34:31.184Z,1002.17
2017-07-12T04:34:57.355Z,1002.2
2017-07-12T04:35:23.491Z,1002.19
2017-07-12T04:35:49.621Z,1002.22
2017-07-12T04:36:15.761Z,1002.25
2017-07-12T04:36:41.902Z,1002.24
2017-07-12T04:37:08.076Z,1002.23
2017-07-12T04:37:34.204Z,1002.24
2017-07-12T04:38:00.341Z,1002.25
2017-07-12T04:38:26.491Z,1002.23
2017-07-12T04:38:52.629Z,1002.2
2017-07-12T04:39:18.757Z,1002.21
2017-07-12T04:39:44.908Z,1002.22
2017-07-12T04:40:11.043Z,1002.21
2017-07-12T04:40:37.176Z,1002.19
2017-07-12T04:41:03.322Z,1002.14
2017-07-12T04:41:29.461Z,1002.14
2017-07-12T04:41:55.601Z,1002.1
2017-07-12T04:42:21.737Z,1002.11
2017-07-12T04:42:47.867Z,1002.11
2017-07-12T04:43:14.015Z,1002.11
2017-07-12T04:43:40.150Z,1002.07
2017-07-12T04:44:06.278Z,1002.08
2017-07-12T04:44:32.425Z,1002.05
2017-07-12T04:44:58.567Z,1002.07
2017-07-12T04:45:24.699Z,1002.08
2017-07-12T04:45:50.837Z,1002.09
2017-07-12T04:46:16.986Z,1002.07
2017-07-12T04:46:43.113Z,1002.06
2017-07-12T04:47:09.255Z,1002.05
2017-07-12T04:47:35.389Z,1002.03
2017-07-12T04:48:01.540Z,1002.01
2017-07-12T04:48:27.681Z,1002
2017-07-12T04:48:53.813Z,1002.03
2017-07-12T04:49:19.955Z,1002
2017-07-12T04:49:46.104Z,1002.05
2017-07-12T04:50:12.232Z,1002
2017-07-12T04:50:38.374Z,1002.01
2017-07-12T04:51:04.522Z,1002
2017-07-12T04:51:30.651Z,1002
2017-07-12T04:51:56.785Z,1001.98
2017-07-12T04:52:22.935Z,1001.97
2017-07-12T04:52:49.069Z,1001.96
2017-07-12T04:53:15.214Z,1002
2017-07-12T04:53:41.339Z,1002
2017-07-12T04:54:07.478Z,1001.97
2017-07-12T04:54:33.625Z,1002.01
2017-07-12T04:54:59.752Z,1002.02
2017-07-12T04:55:25.889Z,1002
2017-07-12T04:55:52.034Z,1002.03
2017-07-12T04:56:18.168Z,1002.04
2017-07-12T04:56:44.295Z,1001.99
2017-07-12T04:57:10.444Z,1002.03
2017-07-12T04:57:36.581Z,1002
2017-07-12T04:58:02.709Z,1002.06
2017-07-12T04:58:28.855Z,1002.03
2017-07-12T04:58:54.994Z,1002.01
2017-07-12T04:59:21.131Z,1001.98
2017-07-12T04:59:47.277Z,1002.04
2017-07-12T05:00:13.419Z,1002.02
2017-07-12T05:00:39.557Z,1002.01
2017-07-12T05:01:05.697Z,1002.02
2017-07-12T05:01:31.872Z,1001.99
2017-07-12T05:01:58.004Z,1001.98
2017-07-12T05:02:24.144Z,1001.98
2017-07-12T05:02:50.286Z,1002
2017-07-12T05:03:16.419Z,1002
2017-07-12T05:03:42.548Z,1002.01
2017-07-12T05:04:08.693Z,1001.97
2017-07-12T05:04:34.832Z,1001.99
2017-07-12T05:05:00.977Z,1001.98
2017-07-12T05:05:27.109Z,1001.98
2017-07-12T05:05:53.251Z,1001.96
2017-07-12T05:06:19.395Z,1001.95
2017-07-12T05:06:45.528Z,1001.95
2017-07-12T05:07:11.661Z,1001.92
2017-07-12T05:07:37.855Z,1001.92
2017-07-12T05:08:03.994Z,1001.9
2017-07-12T05:08:30.126Z,1001.88
2017-07-12T05:08:56.275Z,1001.87
2017-07-12T05:09:22.415Z,1001.87
2017-07-12T05:09:48.557Z,1001.85
2017-07-12T05:10:14.687Z,1001.84
2017-07-12T05:10:40.818Z,1001.83
2017-07-12T05:11:06.967Z,1001.84
2017-07-12T05:11:33.105Z,1001.85
2017-07-12T05:11:59.237Z,1001.89
2017-07-12T05:12:25.381Z,1001.9
2017-07-12T05:12:51.522Z,1001.83
2017-07-12T05:13:17.656Z,1001.89
2017-07-12T05:13:43.801Z,1001.88
2017-07-12T05:14:09.947Z,1001.86
2017-07-12T05:14:36.075Z,1001.84
2017-07-12T05:15:02.212Z,1001.87
2017-07-12T05:15:28.347Z,1001.86
2017-07-12T05:15:54.490Z,1001.87
2017-07-12T05:16:20.633Z,1001.85
2017-07-12T05:16:46.761Z,1001.84
2017-07-12T05:17:12.906Z,1001.85
2017-07-12T05:17:39.052Z,1001.86